Time;durP1;ratioP1;P1;durP2;ratioP2;P2;SDS_P1;SDS_P2;PMS_P1;PMS_P2;Temp;Humidity;BMP_temperature;BMP_pressure;BME280_temperature;BME280_humidity;BME280_pressure;Samples;Min_cycle;Max_cycle;Signal;HPM_P1;HPM_P2
2021/12/14 00:01:27;;;;;;;15.70;9.52;;;;;;;-144.19;82.73;78049.91;5014921;28;20054;-83
2021/12/14 00:03:59;;;;;;;13.88;8.93;;;;;;;-144.19;83.04;78047.94;5014843;28;20100;-84
2021/12/14 00:06:28;;;;;;;16.33;11.20;;;;;;;-144.19;83.05;78044.00;5014259;28;20499;-83
2021/12/14 00:08:58;;;;;;;15.38;9.80;;;;;;;-144.19;82.14;78042.03;5014681;28;20052;-86
2021/12/14 00:16:50;;;;;;;12.18;8.85;;;;;;;-144.19;82.38;78032.19;5013932;28;20046;-85
2021/12/14 00:19:18;;;;;;;13.73;9.13;;;;;;;-144.19;82.25;78012.47;5013660;28;20054;-85
2021/12/14 00:21:50;;;;;;;11.30;8.73;;;;;;;-144.19;81.58;78014.44;5013414;28;20542;-87
2021/12/14 00:24:18;;;;;;;13.20;9.10;;;;;;;-144.19;80.42;78026.28;5015082;28;20416;-86
2021/12/14 00:26:56;;;;;;;15.20;8.85;;;;;;;-144.19;80.68;78030.22;5012231;28;20527;-84
2021/12/14 00:29:32;;;;;;;15.68;10.20;;;;;;;-144.19;81.16;78032.19;5014514;28;20050;-84
2021/12/14 00:32:01;;;;;;;13.40;8.50;;;;;;;-144.19;80.34;78045.97;5013684;28;20053;-86
2021/12/14 00:34:37;;;;;;;14.73;10.30;;;;;;;-144.19;81.20;78044.00;5014043;28;20057;-84
2021/12/14 00:37:13;;;;;;;15.07;10.52;;;;;;;-144.19;80.82;78040.06;5014457;28;20046;-86
2021/12/14 00:39:41;;;;;;;14.57;9.85;;;;;;;-144.19;80.62;78038.09;5023615;28;20057;-86
2021/12/14 00:42:08;;;;;;;18.52;11.52;;;;;;;-144.19;80.71;78028.22;5033345;28;20060;-85
2021/12/14 00:44:34;;;;;;;19.42;10.27;;;;;;;-144.19;81.13;78040.06;5013707;28;20050;-83
2021/12/14 00:47:03;;;;;;;12.63;9.07;;;;;;;-144.19;80.00;78051.88;5014110;28;20057;-86
2021/12/14 00:49:31;;;;;;;11.93;8.65;;;;;;;-144.19;80.88;78053.84;5012730;28;20137;-83
2021/12/14 00:51:57;;;;;;;;;;;;;;;-144.19;80.66;78051.88;5013646;28;20517;-84
2021/12/14 00:54:24;;;;;;;11.85;7.50;;;;;;;-144.19;81.02;78047.94;5013219;28;19929;-84
2021/12/14 00:56:50;;;;;;;13.20;8.57;;;;;;;-144.19;80.51;78036.13;5012792;28;20045;-87
2021/12/14 00:59:19;;;;;;;14.77;9.75;;;;;;;-144.19;80.65;78024.31;5014691;28;20054;-85
2021/12/14 01:01:53;;;;;;;11.57;8.45;;;;;;;-144.19;80.81;78042.03;5013708;28;20062;-84
2021/12/14 01:04:24;;;;;;;14.25;8.52;;;;;;;-144.19;80.19;78028.22;5013254;28;20050;-85
2021/12/14 01:06:52;;;;;;;10.70;8.23;;;;;;;-144.19;79.20;78040.06;5012539;28;20427;-84
2021/12/14 01:09:25;;;;;;;11.65;7.78;;;;;;;-144.19;79.92;78055.81;5014180;28;20050;-85
2021/12/14 01:11:57;;;;;;;11.35;8.18;;;;;;;-144.19;79.71;78044.00;5013777;28;20057;-83
2021/12/14 01:14:32;;;;;;;13.02;8.57;;;;;;;-144.19;79.77;78044.00;5012657;28;20061;-85
2021/12/14 01:17:26;;;;;;;15.38;9.18;;;;;;;-144.19;80.09;78047.94;5011178;28;20046;-87
2021/12/14 01:19:57;;;;;;;10.88;7.53;;;;;;;-144.19;80.33;78061.72;5013938;28;20060;-86
2021/12/14 01:22:42;;;;;;;15.75;9.30;;;;;;;-144.19;80.39;78051.88;5013848;28;20427;-83
2021/12/14 01:25:19;;;;;;;11.90;8.13;;;;;;;-144.19;79.87;78051.88;5014337;28;20069;-85
2021/12/14 01:27:56;;;;;;;11.77;7.53;;;;;;;-144.19;80.04;78063.69;5011848;28;20057;-85
2021/12/14 01:30:51;;;;;;;14.47;8.63;;;;;;;-144.19;80.03;78059.75;5013979;28;20424;-84
2021/12/14 01:33:21;;;;;;;11.50;7.82;;;;;;;-144.19;80.53;78075.50;5012427;28;20308;-85
2021/12/14 01:35:49;;;;;;;12.95;9.05;;;;;;;-144.19;80.30;78075.50;5013190;28;20057;-84
2021/12/14 01:38:21;;;;;;;14.50;9.15;;;;;;;-144.19;80.46;78079.44;5013890;28;20060;-86
2021/12/14 01:40:53;;;;;;;14.05;9.25;;;;;;;-144.19;80.43;78079.44;5030508;28;20050;-85
2021/12/14 01:43:25;;;;;;;13.57;9.25;;;;;;;-144.19;80.08;78079.44;5031444;28;20045;-87
2021/12/14 01:45:53;;;;;;;11.18;7.53;;;;;;;-144.19;80.03;78075.50;5031194;28;20049;-84
2021/12/14 01:48:21;;;;;;;16.42;7.35;;;;;;;-144.19;80.77;78071.56;5031483;28;20121;-85
2021/12/14 01:50:54;;;;;;;11.05;7.25;;;;;;;-144.19;80.54;78075.50;5027343;28;20057;-84
2021/12/14 01:53:22;;;;;;;13.30;8.18;;;;;;;-144.19;81.08;78071.56;5013213;28;20061;-84
2021/12/14 01:55:53;;;;;;;11.63;8.30;;;;;;;-144.19;81.07;78065.66;5012729;28;20060;-85
2021/12/14 01:58:24;;;;;;;12.80;7.93;;;;;;;-144.19;80.56;78059.75;5013308;28;20049;-87
2021/12/14 02:00:58;;;;;;;13.07;9.13;;;;;;;-144.19;80.91;78053.84;5013356;28;20054;-87
2021/12/14 02:03:35;;;;;;;17.73;8.73;;;;;;;-144.19;80.41;78047.94;5011505;28;20054;-88
2021/12/14 02:06:03;;;;;;;15.27;9.00;;;;;;;-144.19;80.63;78044.00;5011075;28;20049;-85
2021/12/14 02:08:34;;;;;;;13.57;8.77;;;;;;;-144.19;80.92;78047.94;5010361;28;20038;-86
2021/12/14 02:11:03;;;;;;;16.48;9.18;;;;;;;-144.19;81.04;78059.75;4991972;28;20146;-86
2021/12/14 02:13:33;;;;;;;14.45;10.15;;;;;;;-144.19;80.54;78040.06;4993067;28;20046;-84
2021/12/14 02:16:01;;;;;;;19.35;12.07;;;;;;;-144.19;81.58;78040.06;4992148;28;20050;-84
2021/12/14 02:18:50;;;;;;;14.90;9.20;;;;;;;-144.19;80.94;78024.31;4992890;28;20419;-86
2021/12/14 02:21:18;;;;;;;15.20;9.13;;;;;;;-144.19;80.88;78018.38;4993302;28;20054;-86
2021/12/14 02:23:48;;;;;;;12.75;9.57;;;;;;;-144.19;80.96;78000.66;4991741;28;20050;-86
2021/12/14 02:26:19;;;;;;;12.35;9.20;;;;;;;-144.19;81.63;78002.63;5008591;28;20045;-86
2021/12/14 02:28:46;;;;;;;11.80;9.00;;;;;;;-144.19;81.44;78006.56;5012780;28;20420;-85
2021/12/14 02:31:18;;;;;;;13.15;10.25;;;;;;;-144.19;81.59;78006.56;5011763;28;20741;-85
2021/12/14 02:33:48;;;;;;;16.67;11.05;;;;;;;-144.19;81.91;78000.66;5011564;28;20050;-85
2021/12/14 02:36:21;;;;;;;12.98;9.57;;;;;;;-144.19;81.77;77996.72;5010508;28;20077;-84
2021/12/14 02:38:52;;;;;;;16.13;10.73;;;;;;;-144.19;81.32;77992.78;5013082;28;20050;-85
2021/12/14 02:41:20;;;;;;;18.50;10.48;;;;;;;-144.19;81.58;78002.63;5030981;28;20061;-87
2021/12/14 02:43:55;;;;;;;12.70;9.73;;;;;;;-144.19;82.38;78004.59;5010465;28;20061;-86
2021/12/14 02:46:34;;;;;;;14.70;9.43;;;;;;;-144.19;81.87;78004.59;5011582;28;20053;-84
2021/12/14 02:49:05;;;;;;;16.02;10.95;;;;;;;-144.19;82.26;78024.31;5010549;28;20046;-84
2021/12/14 02:51:39;;;;;;;19.77;12.63;;;;;;;-144.19;82.41;78008.53;5010918;28;20050;-85
2021/12/14 02:54:12;;;;;;;18.35;12.90;;;;;;;-144.19;81.71;78004.59;5012735;28;20512;-84
2021/12/14 02:56:40;;;;;;;19.55;11.25;;;;;;;-144.19;81.53;78026.28;5010297;28;20053;-86
2021/12/14 02:59:11;;;;;;;19.83;12.93;;;;;;;-144.19;82.08;78016.41;5012251;28;20496;-84
2021/12/14 03:01:41;;;;;;;18.40;13.63;;;;;;;-144.19;81.47;78024.31;5010837;28;20076;-84
2021/12/14 03:04:10;;;;;;;21.90;12.85;;;;;;;-144.19;82.86;78032.19;5011019;28;20092;-86
2021/12/14 03:06:46;;;;;;;19.30;12.40;;;;;;;-144.19;82.56;78018.38;5009535;28;20350;-86
2021/12/14 03:09:37;;;;;;;21.95;14.40;;;;;;;-144.19;82.49;78006.56;5012420;28;20045;-87
2021/12/14 03:12:14;;;;;;;20.42;12.63;;;;;;;-144.19;82.45;78014.44;5010642;28;20054;-86
2021/12/14 03:14:49;;;;;;;21.45;12.90;;;;;;;-144.19;82.42;78026.28;5011051;28;20051;-86
2021/12/14 03:17:16;;;;;;;21.50;15.05;;;;;;;-144.19;82.49;78020.34;5007864;28;20046;-86
2021/12/14 03:19:43;;;;;;;20.55;13.63;;;;;;;-144.19;82.67;78010.50;5010766;28;20448;-84
2021/12/14 03:22:30;;;;;;;21.15;13.43;;;;;;;-144.19;83.23;78024.31;5008291;28;20053;-84
2021/12/14 03:24:57;;;;;;;19.17;12.38;;;;;;;-144.19;82.72;78016.41;5010213;28;20056;-83
2021/12/14 03:27:24;;;;;;;17.15;12.02;;;;;;;-144.19;82.96;78032.19;5009006;28;20041;-86
2021/12/14 03:29:50;;;;;;;16.02;11.55;;;;;;;-144.19;83.40;78032.19;5011468;28;20421;-83
2021/12/14 03:32:17;;;;;;;23.15;14.80;;;;;;;-144.19;83.25;78024.31;5011205;28;20060;-83
2021/12/14 03:34:44;;;;;;;21.52;14.43;;;;;;;-144.19;82.88;78012.47;5010154;28;20053;-85
2021/12/14 03:37:19;;;;;;;24.33;16.27;;;;;;;-144.19;82.94;78012.47;5009177;28;20042;-85
2021/12/14 03:39:50;;;;;;;19.15;12.23;;;;;;;-144.19;83.03;78022.31;5012279;28;20050;-86
2021/12/14 03:42:26;;;;;;;16.77;11.35;;;;;;;-144.19;83.31;78016.41;5009353;28;20068;-87
2021/12/14 03:44:56;;;;;;;21.63;14.25;;;;;;;-144.19;82.51;78004.59;5009573;28;20045;-87
2021/12/14 03:47:29;;;;;;;23.77;14.63;;;;;;;-144.19;83.35;78008.53;5009493;28;20058;-85
2021/12/14 03:50:06;;;;;;;22.27;15.02;;;;;;;-144.19;83.68;78016.41;5009978;28;20042;-85
2021/12/14 03:52:35;;;;;;;25.25;15.23;;;;;;;-144.19;84.16;78012.47;5006942;28;20419;-84
2021/12/14 03:55:08;;;;;;;25.75;16.05;;;;;;;-144.19;84.40;78010.50;5009818;28;20042;-86
2021/12/14 03:57:35;;;;;;;21.67;15.48;;;;;;;-144.19;84.24;78014.44;5008796;28;20046;-85
2021/12/14 04:00:06;;;;;;;20.60;13.68;;;;;;;-144.19;84.75;78018.38;5010257;28;20053;-84
2021/12/14 04:02:32;;;;;;;23.98;14.93;;;;;;;-144.19;84.22;78008.53;5010627;28;20073;-85
2021/12/14 04:05:06;;;;;;;19.60;14.57;;;;;;;-144.19;84.91;78008.53;5011558;28;20100;-85
2021/12/14 04:07:34;;;;;;;20.73;13.32;;;;;;;-144.19;85.27;78018.38;5010750;28;20049;-84
2021/12/14 04:10:03;;;;;;;21.73;14.85;;;;;;;-144.19;84.81;78002.63;5010231;28;20496;-84
2021/12/14 04:12:29;;;;;;;17.95;14.07;;;;;;;-144.19;84.83;78016.41;5010505;28;20050;-84
2021/12/14 04:14:57;;;;;;;24.52;16.27;;;;;;;-144.19;85.70;78002.63;5010413;28;20065;-83
2021/12/14 04:17:28;;;;;;;21.45;14.35;;;;;;;-144.19;85.44;77988.84;5009615;28;20053;-84
2021/12/14 04:19:55;;;;;;;23.45;15.40;;;;;;;-144.19;84.69;78000.66;5010659;28;20050;-86
2021/12/14 04:22:25;;;;;;;25.30;16.08;;;;;;;-144.19;85.01;77988.84;5010495;28;20050;-85
2021/12/14 04:24:57;;;;;;;20.95;14.00;;;;;;;-144.19;84.27;77961.28;5009508;28;20137;-85
2021/12/14 04:27:26;;;;;;;19.27;14.68;;;;;;;-144.19;84.16;77988.84;5015032;28;20064;-84
2021/12/14 04:29:54;;;;;;;19.00;13.88;;;;;;;-144.19;84.54;77996.72;5014109;28;20054;-84
2021/12/14 04:32:22;;;;;;;18.55;13.02;;;;;;;-144.19;85.01;78004.59;5013553;28;20049;-83
2021/12/14 04:34:49;;;;;;;18.63;13.77;;;;;;;-144.19;85.49;78024.31;5015173;28;20050;-83
2021/12/14 04:37:17;;;;;;;19.48;14.07;;;;;;;-144.19;85.64;78008.53;5013501;28;20050;-86
2021/12/14 04:39:50;;;;;;;19.17;13.35;;;;;;;-144.19;85.03;77980.97;5023389;28;20041;-86
2021/12/14 04:54:05;;;;;;;21.75;15.13;;;;;;;-144.19;87.03;78006.56;5017133;28;20056;-85
2021/12/14 04:56:46;;;;;;;18.73;14.52;;;;;;;-144.19;87.54;78036.13;4961815;28;20054;-84
2021/12/14 04:59:23;;;;;;;20.23;15.13;;;;;;;-144.19;87.67;78028.22;5008751;28;20048;-86
2021/12/14 05:01:56;;;;;;;22.03;15.77;;;;;;;-144.19;87.24;78036.13;5012873;28;20057;-86
2021/12/14 05:04:25;;;;;;;23.98;15.57;;;;;;;-144.19;87.22;78016.41;5013730;28;20053;-85
2021/12/14 05:07:02;;;;;;;20.05;14.63;;;;;;;-144.19;87.94;78020.34;5013872;28;20053;-84
2021/12/14 05:09:33;;;;;;;34.75;22.05;;;;;;;-144.19;88.46;78012.47;5012877;28;20048;-85
2021/12/14 05:12:19;;;;;;;31.10;21.67;;;;;;;-144.19;88.62;78008.53;5013146;28;20428;-86
2021/12/14 05:14:47;;;;;;;33.55;21.15;;;;;;;-144.19;89.15;78020.34;5014819;28;20049;-85
2021/12/14 05:17:21;;;;;;;33.00;21.27;;;;;;;-144.19;89.28;78020.34;5013100;28;20050;-85
2021/12/14 05:19:51;;;;;;;31.88;20.42;;;;;;;-144.19;89.00;78016.41;5014666;28;20046;-84
2021/12/14 05:22:24;;;;;;;26.65;18.27;;;;;;;-144.19;89.40;78036.13;5013471;28;20061;-86
2021/12/14 05:24:54;;;;;;;31.67;20.77;;;;;;;-144.19;89.07;78004.59;5014086;28;20484;-85
2021/12/14 05:27:31;;;;;;;31.77;19.63;;;;;;;-144.19;88.67;78008.53;5012907;28;20496;-85
2021/12/14 05:30:09;;;;;;;31.08;20.75;;;;;;;-144.19;89.63;78022.31;5014021;28;20512;-87
2021/12/14 05:32:36;;;;;;;33.88;22.95;;;;;;;-144.19;89.77;78004.59;5011201;28;20049;-87
2021/12/14 05:35:03;;;;;;;;;;;;;;;-144.19;89.44;78020.34;5012169;28;20842;-87
2021/12/14 05:37:34;;;;;;;36.13;21.20;;;;;;;-144.19;90.18;78020.34;5012783;28;19928;-85
2021/12/14 05:40:05;;;;;;;31.88;19.98;;;;;;;-144.19;89.89;78016.41;5022690;28;20046;-83
2021/12/14 05:45:22;;;;;;;29.20;20.58;;;;;;;-144.19;90.51;78036.13;5012958;28;20435;-86
2021/12/14 05:47:52;;;;;;;29.35;21.70;;;;;;;-144.19;91.40;78028.22;5012034;28;20432;-84
2021/12/14 05:50:26;;;;;;;33.88;22.75;;;;;;;-144.19;91.27;78032.19;5013806;28;20081;-83
2021/12/14 05:52:56;;;;;;;31.50;22.90;;;;;;;-144.19;91.64;78044.00;5012376;28;20583;-84
2021/12/14 05:55:26;;;;;;;33.83;21.77;;;;;;;-144.19;92.30;78034.16;5011975;28;20504;-86
2021/12/14 05:57:55;;;;;;;30.88;21.33;;;;;;;-144.19;91.74;78032.19;5013366;28;20409;-86
2021/12/14 06:00:22;;;;;;;32.53;22.88;;;;;;;-144.19;91.66;78028.22;5011908;28;20056;-86
2021/12/14 06:02:48;;;;;;;39.55;25.08;;;;;;;-144.19;91.32;78036.13;5011845;28;20064;-86
2021/12/14 06:05:18;;;;;;;37.47;26.40;;;;;;;-144.19;91.80;78016.41;5010512;28;20046;-86
2021/12/14 06:07:45;;;;;;;34.85;24.60;;;;;;;-144.19;91.68;78036.13;5012151;28;20046;-87
2021/12/14 06:10:15;;;;;;;33.45;23.33;;;;;;;-144.19;91.84;78028.22;5012168;28;20141;-86
2021/12/14 06:12:42;;;;;;;34.47;23.40;;;;;;;-144.19;91.55;78020.34;5013415;28;20132;-84
2021/12/14 06:15:16;;;;;;;35.45;24.63;;;;;;;-144.19;90.97;78024.31;5012578;28;20054;-87
2021/12/14 06:17:43;;;;;;;35.63;23.00;;;;;;;-144.19;91.34;78044.00;5013389;28;20060;-88
2021/12/14 06:20:13;;;;;;;34.83;23.27;;;;;;;-144.19;91.35;78034.16;5012128;28;20420;-83
2021/12/14 06:22:42;;;;;;;39.55;26.30;;;;;;;-144.19;91.88;78032.19;5013328;28;20057;-86
2021/12/14 06:25:13;;;;;;;40.35;26.02;;;;;;;-144.19;92.78;78045.97;5012599;28;20416;-87
2021/12/14 06:27:40;;;;;;;39.63;26.52;;;;;;;-144.19;92.68;78044.00;5011167;28;20054;-83
2021/12/14 06:30:16;;;;;;;37.67;24.52;;;;;;;-144.19;92.67;78034.16;5011781;28;20053;-85
2021/12/14 06:32:58;;;;;;;36.92;24.02;;;;;;;-144.19;92.63;78024.31;5011167;28;20058;-85
2021/12/14 06:35:42;;;;;;;39.00;25.33;;;;;;;-144.19;92.31;78040.06;5012203;28;20053;-88
2021/12/14 06:38:30;;;;;;;38.92;26.15;;;;;;;-144.19;92.20;78034.16;5012669;28;20053;-84
2021/12/14 06:40:59;;;;;;;36.50;25.83;;;;;;;-144.19;92.61;78047.94;5012279;28;20061;-90
2021/12/14 06:43:33;;;;;;;37.42;25.63;;;;;;;-144.19;93.38;78055.81;5012241;28;20610;-87
2021/12/14 06:46:04;;;;;;;36.55;25.42;;;;;;;-144.19;92.74;78051.88;5010927;28;20056;-90
2021/12/14 06:48:38;;;;;;;40.50;28.38;;;;;;;-144.19;92.86;78049.91;5012047;28;20065;-84
2021/12/14 06:51:12;;;;;;;41.78;28.70;;;;;;;-144.19;92.49;78036.13;5012631;28;20050;-84
2021/12/14 06:53:40;;;;;;;37.28;26.73;;;;;;;-144.19;91.82;78063.69;5012596;28;20060;-86
2021/12/14 06:56:09;;;;;;;33.65;23.67;;;;;;;-144.19;92.30;78055.81;5011308;28;20247;-86
2021/12/14 06:58:44;;;;;;;39.28;26.88;;;;;;;-144.19;92.04;78051.88;5011946;28;20049;-87
2021/12/14 07:01:16;;;;;;;42.97;27.45;;;;;;;-144.19;92.08;78059.75;5011811;28;20057;-85
2021/12/14 07:03:57;;;;;;;42.75;26.77;;;;;;;-144.19;91.76;78036.13;5012803;28;20129;-84
2021/12/14 07:06:38;;;;;;;40.47;27.65;;;;;;;-144.19;92.05;78047.94;5013665;28;20054;-89
2021/12/14 07:09:12;;;;;;;36.15;26.83;;;;;;;-144.19;92.73;78065.66;5010715;28;20050;-86
2021/12/14 07:11:43;;;;;;;38.60;26.75;;;;;;;-144.19;93.56;78091.25;5012216;28;20054;-83
2021/12/14 07:14:41;;;;;;;38.95;27.23;;;;;;;-144.19;94.11;78083.38;5012342;28;20052;-86
2021/12/14 07:17:18;;;;;;;45.30;28.60;;;;;;;-144.19;93.21;78055.81;5006055;28;20523;-85
2021/12/14 07:20:00;;;;;;;39.20;26.35;;;;;;;-144.19;93.49;78063.69;5011809;28;20052;-84
2021/12/14 07:22:30;;;;;;;40.35;27.67;;;;;;;-144.19;92.34;78055.81;5011834;28;20045;-88
2021/12/14 07:25:19;;;;;;;39.67;27.10;;;;;;;-144.19;92.74;78063.69;5011249;28;20065;-88
2021/12/14 07:27:48;;;;;;;42.20;28.38;;;;;;;-144.19;92.77;78063.69;5001850;28;20060;-87
2021/12/14 07:30:29;;;;;;;39.40;26.20;;;;;;;-144.19;92.52;78075.50;5010956;28;20141;-87
2021/12/14 07:33:05;;;;;;;38.60;27.58;;;;;;;-144.19;92.98;78071.56;5011929;28;20050;-84
2021/12/14 07:36:00;;;;;;;42.70;29.90;;;;;;;-144.19;92.61;78069.59;5012344;28;20445;-84
2021/12/14 07:38:30;;;;;;;41.97;27.15;;;;;;;-144.19;92.00;78077.47;5003928;28;20500;-87
2021/12/14 07:41:08;;;;;;;36.72;25.45;;;;;;;-144.19;92.29;78075.50;5011334;28;20111;-87
2021/12/14 07:43:45;;;;;;;39.20;27.17;;;;;;;-144.19;92.90;78083.38;5010867;28;20447;-86
2021/12/14 07:46:23;;;;;;;43.30;28.38;;;;;;;-144.19;93.09;78067.63;5009481;28;20060;-85
2021/12/14 07:48:57;;;;;;;39.28;27.67;;;;;;;-144.19;93.00;78071.56;5011630;28;20401;-82
2021/12/14 07:51:25;;;;;;;43.90;28.60;;;;;;;-144.19;92.48;78059.75;5011619;28;20050;-87
2021/12/14 07:53:58;;;;;;;38.92;25.15;;;;;;;-144.19;91.99;78073.53;5013297;28;20072;-84
2021/12/14 07:56:31;;;;;;;37.25;24.88;;;;;;;-144.19;91.61;78059.75;5010902;28;20537;-84
2021/12/14 07:58:58;;;;;;;35.72;25.20;;;;;;;-144.19;92.10;78075.50;5011788;28;20064;-87
2021/12/14 08:01:25;;;;;;;;;;;;;;;-144.19;93.14;78071.56;5013243;28;20050;-84
2021/12/14 08:04:06;;;;;;;38.72;26.15;;;;;;;-144.19;92.37;78071.56;5015216;28;19921;-84
2021/12/14 08:06:50;;;;;;;36.30;25.50;;;;;;;-144.19;92.65;78073.53;5014569;28;20518;-84
2021/12/14 08:09:32;;;;;;;38.22;26.63;;;;;;;-144.19;92.34;78065.66;5015286;28;20504;-85
2021/12/14 08:12:00;;;;;;;40.00;26.42;;;;;;;-144.19;92.30;78071.56;5014410;28;20050;-84
2021/12/14 08:14:28;;;;;;;37.95;26.95;;;;;;;-144.19;93.27;78083.38;5014565;28;20554;-84
2021/12/14 08:17:00;;;;;;;35.75;24.58;;;;;;;-144.19;93.60;78075.50;5023334;28;20054;-84
2021/12/14 08:19:37;;;;;;;37.25;25.20;;;;;;;-144.19;92.69;78079.44;5030106;28;20393;-85
2021/12/14 08:22:29;;;;;;;38.33;27.55;;;;;;;-144.19;92.77;78065.66;5016184;28;20053;-85
2021/12/14 08:24:56;;;;;;;;;;;;;;;-144.19;93.56;78093.22;5017273;28;20057;-89
2021/12/14 08:27:26;;;;;;;40.78;26.45;;;;;;;-144.19;93.59;78107.00;5014606;28;19929;-88
2021/12/14 08:29:56;;;;;;;38.67;27.83;;;;;;;-144.19;93.73;78103.06;5015154;28;20046;-86
2021/12/14 08:32:32;;;;;;;41.28;27.75;;;;;;;-144.19;93.15;78101.09;5014200;28;20705;-90
2021/12/14 08:35:01;;;;;;;37.70;26.02;;;;;;;-144.19;93.21;78099.13;5016181;28;20054;-87
2021/12/14 08:37:45;;;;;;;39.72;28.00;;;;;;;-144.19;93.69;78107.00;5015768;28;20045;-87
2021/12/14 08:40:25;;;;;;;41.28;28.30;;;;;;;-144.19;93.32;78097.16;5014902;28;20052;-88
2021/12/14 08:43:06;;;;;;;38.50;26.77;;;;;;;-144.19;93.05;78103.06;5015525;28;20060;-86
2021/12/14 08:45:39;;;;;;;41.08;26.05;;;;;;;-144.19;93.07;78095.19;5015005;28;20053;-87
2021/12/14 08:48:33;;;;;;;41.67;27.88;;;;;;;-144.19;92.71;78095.19;5015642;28;20049;-86
2021/12/14 08:51:15;;;;;;;43.20;28.52;;;;;;;-144.19;93.21;78085.34;5010251;28;20045;-88
2021/12/14 08:54:00;;;;;;;41.45;26.75;;;;;;;-144.19;93.25;78103.06;5014363;28;20427;-87
2021/12/14 08:56:29;;;;;;;39.55;26.95;;;;;;;-144.19;93.67;78093.22;5014708;28;20050;-87
2021/12/14 08:58:57;;;;;;;40.17;27.15;;;;;;;-144.19;92.82;78089.28;5013739;28;20507;-85
2021/12/14 09:01:27;;;;;;;;;;;;;;;-144.19;92.18;78063.69;5015784;28;20069;-89
2021/12/14 09:04:06;;;;;;;38.80;26.10;;;;;;;-144.19;91.10;78044.00;5014057;28;19996;-85
2021/12/14 09:06:35;;;;;;;42.58;28.23;;;;;;;-144.19;91.35;78063.69;5013417;28;20053;-87
2021/12/14 09:09:11;;;;;;;39.03;26.00;;;;;;;-144.19;91.53;78053.84;5014911;28;20111;-86
2021/12/14 09:11:41;;;;;;;41.85;26.63;;;;;;;-144.19;91.10;78045.97;5012893;28;20058;-85
2021/12/14 09:14:16;;;;;;;37.67;24.92;;;;;;;-144.19;90.82;78036.13;5012624;28;20048;-90
2021/12/14 09:16:48;;;;;;;39.08;27.05;;;;;;;-144.19;90.89;78040.06;5013796;28;20420;-88
2021/12/14 09:19:29;;;;;;;39.42;26.23;;;;;;;-144.19;90.42;78012.47;5013237;28;20566;-87
2021/12/14 09:21:57;;;;;;;36.80;25.33;;;;;;;-144.19;90.24;78032.19;5011975;28;20526;-88
2021/12/14 09:24:27;;;;;;;39.08;26.65;;;;;;;-144.19;89.81;78022.31;5007941;28;20052;-86
2021/12/14 09:26:58;;;;;;;35.22;23.80;;;;;;;-144.19;89.54;78020.34;5014353;28;20432;-86
2021/12/14 09:29:28;;;;;;;38.38;26.75;;;;;;;-144.19;89.41;78006.56;5011981;28;20057;-87
2021/12/14 09:31:58;;;;;;;37.67;25.40;;;;;;;-144.19;89.64;78032.19;5012966;28;20515;-83
2021/12/14 09:34:27;;;;;;;39.33;25.90;;;;;;;-144.19;90.19;78022.31;5015087;28;20054;-85
2021/12/14 09:36:54;;;;;;;40.38;25.63;;;;;;;-144.19;89.57;78000.66;5013155;28;20124;-85
2021/12/14 09:39:34;;;;;;;38.15;26.52;;;;;;;-144.19;90.42;78026.28;5013605;28;20046;-85
2021/12/14 09:42:05;;;;;;;44.22;27.48;;;;;;;-144.19;89.60;78024.31;5013573;28;20075;-86
2021/12/14 09:44:33;;;;;;;40.50;27.30;;;;;;;-144.19;90.10;78012.47;5011889;28;20141;-86
2021/12/14 09:47:03;;;;;;;35.75;24.45;;;;;;;-144.19;90.27;78012.47;5014852;28;20091;-84
2021/12/14 09:49:30;;;;;;;40.15;26.08;;;;;;;-144.19;89.91;77998.69;5013003;28;20050;-85
2021/12/14 09:52:00;;;;;;;33.23;24.10;;;;;;;-144.19;89.78;78004.59;5013598;28;20663;-84
2021/12/14 09:54:29;;;;;;;36.25;24.98;;;;;;;-144.19;90.42;78010.50;5014224;28;20050;-86
2021/12/14 09:57:04;;;;;;;37.40;24.20;;;;;;;-144.19;90.79;78018.38;5012175;28;20046;-87
2021/12/14 09:59:30;;;;;;;34.92;24.17;;;;;;;-144.19;89.65;78002.63;5014418;28;20056;-87
2021/12/14 10:02:03;;;;;;;42.17;25.52;;;;;;;-144.19;90.31;78000.66;5013748;28;20050;-87
2021/12/14 10:04:38;;;;;;;41.83;28.10;;;;;;;-144.19;89.75;77992.78;5014155;28;20057;-88
2021/12/14 10:07:08;;;;;;;39.58;27.27;;;;;;;-144.19;90.76;78020.34;5016590;28;20057;-88
2021/12/14 10:09:41;;;;;;;40.70;26.90;;;;;;;-144.19;91.66;78008.53;5016732;28;20046;-87
2021/12/14 10:12:51;;;;;;;41.17;27.05;;;;;;;-144.19;91.98;78008.53;5013715;28;20061;-85
2021/12/14 10:15:21;;;;;;;;;;;;;;;-144.19;91.61;78000.66;5013659;28;20056;-85
2021/12/14 10:17:48;;;;;;;38.25;24.40;;;;;;;-144.19;91.24;77973.09;5012361;28;19948;-85
2021/12/14 10:20:20;;;;;;;35.00;25.08;;;;;;;-144.19;90.68;77984.91;5012617;28;20519;-88
2021/12/14 10:22:51;;;;;;;38.30;26.02;;;;;;;-144.19;90.49;77990.81;5013074;28;20046;-86
2021/12/14 10:25:21;;;;;;;36.95;25.13;;;;;;;-144.19;90.50;78000.66;5012689;28;20060;-87
2021/12/14 10:27:49;;;;;;;34.67;24.80;;;;;;;-144.19;91.05;77971.13;5012549;28;20075;-87
2021/12/14 10:30:21;;;;;;;39.22;25.77;;;;;;;-144.19;90.14;77977.03;5012032;28;20069;-84
2021/12/14 10:32:48;;;;;;;35.85;24.90;;;;;;;-144.19;89.78;77971.13;5013879;28;20049;-86
2021/12/14 10:35:22;;;;;;;35.65;25.17;;;;;;;-144.19;90.26;77961.28;5013584;28;20045;-88
2021/12/14 10:38:10;;;;;;;34.95;24.45;;;;;;;-144.19;89.95;77957.34;5012858;28;20053;-85
2021/12/14 10:43:25;;;;;;;38.10;24.95;;;;;;;-144.19;90.05;77967.19;5013034;28;20448;-82
2021/12/14 10:46:29;;;;;;;35.88;24.63;;;;;;;-144.19;89.59;77945.53;5011392;28;20064;-85
2021/12/14 10:48:57;;;;;;;39.17;27.38;;;;;;;-144.19;89.84;77945.53;5002780;28;20046;-86
2021/12/14 10:51:28;;;;;;;38.75;24.92;;;;;;;-144.19;89.50;77933.72;5028462;28;20053;-85
2021/12/14 10:54:00;;;;;;;39.60;26.38;;;;;;;-144.19;89.59;77929.78;5031861;28;20455;-85
2021/12/14 10:56:44;;;;;;;35.60;24.20;;;;;;;-144.19;89.26;77931.75;5011650;28;20049;-85
2021/12/14 10:59:14;;;;;;;34.42;23.83;;;;;;;-144.19;88.58;77933.72;5013080;28;20057;-85
2021/12/14 11:01:42;;;;;;;37.85;24.45;;;;;;;-144.19;88.88;77929.78;5012621;28;20063;-83
2021/12/14 11:04:12;;;;;;;36.47;24.38;;;;;;;-144.19;88.73;77931.75;5011889;28;20077;-85
2021/12/14 11:06:44;;;;;;;39.53;26.88;;;;;;;-144.19;89.37;77957.34;5011285;28;20053;-84
2021/12/14 11:12:26;;;;;;;36.85;25.05;;;;;;;-144.19;89.18;77945.53;5012871;28;20140;-85
2021/12/14 11:15:18;;;;;;;35.45;24.45;;;;;;;-144.19;88.98;77953.41;5011366;28;20049;-86
2021/12/14 11:20:39;;;;;;;40.95;26.02;;;;;;;-144.19;89.33;77969.16;5012519;28;20057;-82
2021/12/14 11:23:22;;;;;;;40.17;27.38;;;;;;;-144.19;89.67;77963.25;5012112;28;20061;-82
2021/12/14 11:25:48;;;;;;;39.08;26.30;;;;;;;-144.19;89.86;77957.34;5010938;28;20061;-84
2021/12/14 11:28:33;;;;;;;38.58;26.52;;;;;;;-144.19;89.55;77961.28;5013099;28;20423;-86
2021/12/14 11:31:03;;;;;;;40.33;26.20;;;;;;;-144.19;89.53;77945.53;5012554;28;20042;-84
2021/12/14 11:33:42;;;;;;;40.92;26.67;;;;;;;-144.19;90.05;77969.16;5011371;28;20641;-83
2021/12/14 11:36:11;;;;;;;38.38;24.92;;;;;;;-144.19;89.70;77957.34;5014257;28;20049;-85
2021/12/14 11:38:49;;;;;;;37.42;24.30;;;;;;;-144.19;89.86;77957.34;5015379;28;20053;-83
2021/12/14 11:41:28;;;;;;;35.50;22.95;;;;;;;-144.19;89.23;77933.72;5016488;28;20046;-84
2021/12/14 11:44:23;;;;;;;39.17;25.73;;;;;;;-144.19;87.83;77935.69;5026000;28;20049;-85
2021/12/14 11:47:07;;;;;;;36.78;25.40;;;;;;;-144.19;88.38;77917.97;5017401;28;20493;-87
2021/12/14 11:49:55;;;;;;;39.58;26.08;;;;;;;-144.19;88.61;77941.59;5016837;28;20069;-86
2021/12/14 11:52:57;;;;;;;43.38;25.92;;;;;;;-144.19;89.39;77949.47;5017962;28;20499;-85
2021/12/14 11:55:56;;;;;;;38.97;25.45;;;;;;;-144.19;89.39;77937.66;5015757;28;20042;-84
2021/12/14 11:58:38;;;;;;;39.85;25.00;;;;;;;-144.19;88.82;77927.81;5016248;28;20046;-85
2021/12/14 12:01:22;;;;;;;43.13;26.95;;;;;;;-144.19;88.79;77914.03;5016605;28;20053;-85